Главная страница
METAR-TAF:

METAR-TAF

Аэропорты :

Йоэнсуу, Финляндия

широта: 62-40N, долгота: 029-38E, высота над уровнем моря: 119 м

Текущие метеонаблюдения

Эта сводка был подготовлена 36 минут назад, в 09:50 UTC
Ветер 11 Узел от западный-юго-западный, изменяющийся между юго-западный и западный
Температура 2°C
Влажность 55%
Давление 1007 hPa
Видимость 10 км и более
небольшая облачность на высоте 2700 фута

METAR: EFJO 230950Z 25011KT 220V280 9999 FEW027 02/M06 Q1007

Время: 12:26 (10:26 UTC)

Прогноз

Эта сводка был подготовлена 1 час и 56 минут назад, в 08:30 UTC
Прогноз действительный с 23-го 09 UTC до 23-го 18 UTC
Ветер 10 Узел от западный-юго-западный
Видимость 10 км и более
небольшая облачность на высоте 2000 фута
временами
С 23-го 09 UTC до 23-го 17 UTC
Ветер 12 Узел от западный с порывами до 22 Узел

TAF: EFJO 230830Z 2309/2318 24010KT 9999 FEW020 TEMPO 2309/2317 26012G22KT

Метеонаблюдения и прогнозы для более 4000 аэропортов (сводки METAR и TAF).

Имеющиеся станции представлены на карте желтыми и красными точками.

Чтобы увидеть название станции, наведите на нее мышь.

Затем щелкните, чтобы увидеть метеонаблюдения и метеопрогнозы.

Управление картой: чтобы увеличить масштаб, щелкните зеленые кнопки с черным крестиком; чтобы уменьшить масштаб, щелкните зеленую кнопку с тире; для просмотра соседних карт щелкайте зеленые стрелки.


METAR-TAF: